createdAt,value
2023-02-28T00:00:24.010Z,0.40
2023-02-28T00:02:50.664Z,0.40
2023-02-28T00:05:18.966Z,0.50
2023-02-28T00:07:45.650Z,0.40
2023-02-28T00:10:14.020Z,0.50
2023-02-28T00:12:40.744Z,0.50
2023-02-28T00:15:08.670Z,0.50
2023-02-28T00:17:35.298Z,0.50
2023-02-28T00:20:05.479Z,0.40
2023-02-28T00:22:32.103Z,0.40
2023-02-28T00:24:58.974Z,0.30
2023-02-28T00:27:25.653Z,0.30
2023-02-28T00:29:52.248Z,0.30
2023-02-28T00:32:20.140Z,0.30
2023-02-28T00:34:46.793Z,0.40
2023-02-28T00:37:13.427Z,0.40
2023-02-28T00:39:40.167Z,0.30
2023-02-28T00:42:07.424Z,0.40
2023-02-28T00:44:34.028Z,0.40
2023-02-28T00:47:00.791Z,0.40
2023-02-28T00:49:27.964Z,0.50
2023-02-28T00:51:55.212Z,0.50
2023-02-28T00:54:22.147Z,0.50
2023-02-28T00:56:49.272Z,0.50
2023-02-28T00:59:16.443Z,0.40
2023-02-28T01:01:43.648Z,0.30
2023-02-28T01:04:10.314Z,0.30
2023-02-28T01:06:37.120Z,0.30
2023-02-28T01:09:04.577Z,0.20
2023-02-28T01:11:31.366Z,0.20
2023-02-28T01:13:57.980Z,0.20
2023-02-28T01:16:24.635Z,0.30
2023-02-28T01:18:51.286Z,0.30
2023-02-28T01:21:18.860Z,0.30
2023-02-28T01:23:45.488Z,0.20
2023-02-28T01:26:17.091Z,0.20
2023-02-28T01:28:44.128Z,0.20
2023-02-28T01:31:10.985Z,0.20
2023-02-28T01:33:38.480Z,0.20
2023-02-28T01:36:06.437Z,0.10
2023-02-28T01:38:33.448Z,0.10
2023-02-28T01:41:00.115Z,0.10
2023-02-28T01:43:31.823Z,0.00
2023-02-28T01:45:59.903Z,0.00
2023-02-28T01:48:30.344Z,0.00
2023-02-28T01:51:00.852Z,-0.10
2023-02-28T01:53:36.069Z,-0.10
2023-02-28T01:56:02.737Z,-0.10
2023-02-28T01:58:29.427Z,-0.10
2023-02-28T02:00:56.085Z,-0.20
2023-02-28T02:03:22.758Z,-0.20
2023-02-28T02:05:49.360Z,-0.20
2023-02-28T02:08:26.811Z,-0.20
2023-02-28T02:10:57.897Z,-0.20
2023-02-28T02:13:39.546Z,-0.20
2023-02-28T02:16:15.629Z,-0.10
2023-02-28T02:18:51.934Z,-0.10
2023-02-28T02:21:36.923Z,-0.10
2023-02-28T02:24:38.187Z,-0.20
2023-02-28T02:27:32.812Z,-0.20
2023-02-28T02:29:59.419Z,-0.20
2023-02-28T02:32:58.542Z,-0.20
2023-02-28T02:35:32.942Z,-0.20
2023-02-28T02:38:04.739Z,-0.20
2023-02-28T02:40:38.188Z,-0.10
2023-02-28T02:43:09.444Z,-0.10
2023-02-28T02:45:40.765Z,-0.10
2023-02-28T02:48:09.600Z,-0.10
2023-02-28T02:50:41.500Z,-0.10
2023-02-28T02:53:08.222Z,-0.10
2023-02-28T02:55:37.774Z,-0.10
2023-02-28T02:58:05.872Z,-0.10
2023-02-28T03:00:38.534Z,-0.10
2023-02-28T03:03:05.210Z,-0.10
2023-02-28T03:05:35.380Z,-0.10
2023-02-28T03:08:04.947Z,-0.10
2023-02-28T03:10:40.239Z,-0.20
2023-02-28T03:13:12.951Z,-0.10
2023-02-28T03:16:18.653Z,-0.10
2023-02-28T03:19:07.303Z,-0.10
2023-02-28T03:22:05.365Z,-0.20
2023-02-28T03:24:59.729Z,-0.20
2023-02-28T03:27:28.345Z,0.00
2023-02-28T03:30:02.425Z,0.00
2023-02-28T03:32:30.889Z,0.00
2023-02-28T03:35:15.074Z,0.00
2023-02-28T03:37:43.181Z,0.00
2023-02-28T03:40:13.848Z,0.00
2023-02-28T03:42:42.448Z,0.00
2023-02-28T03:45:23.496Z,0.00
2023-02-28T03:48:00.013Z,0.00
2023-02-28T03:50:39.119Z,0.00
2023-02-28T03:53:26.499Z,0.00
2023-02-28T03:55:56.266Z,0.00
2023-02-28T03:58:32.649Z,0.10
2023-02-28T04:01:12.434Z,0.10
2023-02-28T04:03:39.274Z,0.10
2023-02-28T04:06:09.392Z,0.10
2023-02-28T04:08:36.097Z,0.10
2023-02-28T04:11:08.141Z,0.00
2023-02-28T04:13:34.970Z,0.00
2023-02-28T04:16:01.629Z,0.00
2023-02-28T04:18:28.521Z,0.00
2023-02-28T04:20:55.158Z,0.00
2023-02-28T04:23:21.986Z,0.00
2023-02-28T04:25:48.612Z,0.00
2023-02-28T04:28:15.243Z,-0.10
2023-02-28T04:30:41.863Z,-0.10
2023-02-28T04:33:08.522Z,-0.20
2023-02-28T04:35:35.183Z,-0.20
2023-02-28T04:38:01.880Z,-0.20
2023-02-28T04:40:28.492Z,-0.20
2023-02-28T04:42:55.365Z,-0.20
2023-02-28T04:45:21.981Z,-0.30
2023-02-28T04:47:48.598Z,-0.30
2023-02-28T04:50:15.425Z,-0.30
2023-02-28T04:52:42.055Z,-0.30
2023-02-28T04:55:09.038Z,-0.30
2023-02-28T04:57:35.674Z,-0.40
2023-02-28T05:00:02.348Z,-0.40
2023-02-28T05:02:29.075Z,-0.40
2023-02-28T05:04:55.851Z,-0.40
2023-02-28T05:07:22.561Z,-0.40
2023-02-28T05:09:49.168Z,-0.40
2023-02-28T05:12:15.783Z,-0.40
2023-02-28T05:14:42.413Z,-0.40
2023-02-28T05:17:09.852Z,-0.40
2023-02-28T05:19:36.473Z,-0.30
2023-02-28T05:22:05.081Z,-0.30
2023-02-28T05:24:31.871Z,-0.20
2023-02-28T05:26:59.017Z,-0.20
2023-02-28T05:29:25.712Z,-0.30
2023-02-28T05:31:52.719Z,-0.20
2023-02-28T05:34:19.565Z,-0.20
2023-02-28T05:36:46.255Z,-0.10
2023-02-28T05:39:13.942Z,0.00
2023-02-28T05:41:42.320Z,0.00
2023-02-28T05:44:09.106Z,0.00
2023-02-28T05:46:35.797Z,0.10
2023-02-28T05:49:02.813Z,0.10
2023-02-28T05:51:30.338Z,0.10
2023-02-28T05:54:00.620Z,0.10
2023-02-28T05:56:27.479Z,0.10
2023-02-28T05:58:54.343Z,0.10
2023-02-28T06:01:22.529Z,0.10
2023-02-28T06:03:49.419Z,0.10
2023-02-28T06:06:16.283Z,0.00
2023-02-28T06:08:44.584Z,0.00
2023-02-28T06:11:14.235Z,0.00
2023-02-28T06:13:41.147Z,0.00
2023-02-28T06:16:08.726Z,0.00
2023-02-28T06:18:35.614Z,0.00
2023-02-28T06:21:02.215Z,0.00
2023-02-28T06:23:28.856Z,0.00
2023-02-28T06:25:59.056Z,-0.10
2023-02-28T06:28:26.536Z,-0.10
2023-02-28T06:30:53.430Z,0.00
2023-02-28T06:33:20.074Z,0.00
2023-02-28T06:35:48.473Z,0.10
2023-02-28T06:38:15.136Z,0.20
2023-02-28T06:40:41.790Z,0.20
2023-02-28T06:43:08.430Z,0.30
2023-02-28T06:45:35.091Z,0.30
2023-02-28T06:48:01.750Z,0.30
2023-02-28T06:50:30.402Z,0.30
2023-02-28T06:52:57.070Z,0.40
2023-02-28T06:55:23.772Z,0.50
2023-02-28T06:57:51.561Z,0.50
2023-02-28T07:00:18.343Z,0.60
2023-02-28T07:02:45.063Z,0.70
2023-02-28T07:05:11.728Z,0.80
2023-02-28T07:07:41.503Z,1.00
2023-02-28T07:10:08.793Z,1.20
2023-02-28T07:12:35.418Z,1.60
2023-02-28T07:15:02.038Z,1.90
2023-02-28T07:17:28.686Z,2.20
2023-02-28T07:19:55.371Z,2.90
2023-02-28T07:22:22.332Z,3.40
2023-02-28T07:24:49.037Z,3.60
2023-02-28T07:27:24.838Z,4.00
2023-02-28T07:29:51.515Z,5.20
2023-02-28T07:32:18.205Z,6.50
2023-02-28T07:34:44.900Z,7.60
2023-02-28T07:37:11.531Z,7.30
2023-02-28T07:39:38.176Z,6.40
2023-02-28T07:42:11.352Z,6.20
2023-02-28T07:44:41.243Z,5.80
2023-02-28T07:47:11.480Z,6.00
2023-02-28T07:49:38.447Z,6.40
2023-02-28T07:52:06.313Z,6.90
2023-02-28T07:54:33.518Z,7.00
2023-02-28T07:57:00.422Z,7.20
2023-02-28T07:59:27.364Z,7.00
2023-02-28T08:01:54.020Z,7.40
2023-02-28T08:04:20.792Z,7.20
2023-02-28T08:06:47.439Z,6.70
2023-02-28T08:09:14.156Z,6.20
2023-02-28T08:11:40.823Z,6.00
2023-02-28T08:14:07.460Z,6.40
2023-02-28T08:16:34.120Z,6.80
2023-02-28T08:19:00.790Z,7.40
2023-02-28T08:21:27.746Z,6.90
2023-02-28T08:23:54.954Z,7.00
2023-02-28T08:26:21.971Z,6.80
2023-02-28T08:28:48.587Z,6.70
2023-02-28T08:31:16.182Z,6.30
2023-02-28T08:33:43.692Z,5.80
2023-02-28T08:36:10.652Z,5.30
2023-02-28T08:38:37.783Z,4.70
2023-02-28T08:41:09.772Z,4.00
2023-02-28T08:43:36.748Z,3.90
2023-02-28T08:46:04.495Z,3.80
2023-02-28T08:48:32.464Z,3.40
2023-02-28T08:51:08.100Z,3.40
2023-02-28T08:53:35.552Z,3.30
2023-02-28T08:56:04.710Z,3.40
2023-02-28T08:58:31.356Z,3.30
2023-02-28T09:00:58.276Z,3.30
2023-02-28T09:03:25.370Z,3.50
2023-02-28T09:05:55.947Z,3.60
2023-02-28T09:08:22.666Z,3.40
2023-02-28T09:10:49.569Z,3.60
2023-02-28T09:13:16.183Z,3.40
2023-02-28T09:15:42.832Z,3.30
2023-02-28T09:18:09.588Z,3.30
2023-02-28T09:20:39.717Z,3.50
2023-02-28T09:23:07.420Z,3.80
2023-02-28T09:25:34.526Z,3.60
2023-02-28T09:28:01.399Z,3.50
2023-02-28T09:30:28.207Z,3.10
2023-02-28T09:32:55.137Z,2.90
2023-02-28T09:35:25.355Z,3.00
2023-02-28T09:37:55.316Z,3.00
2023-02-28T09:40:23.423Z,3.30
2023-02-28T09:42:51.707Z,3.30
2023-02-28T09:45:24.218Z,3.60
2023-02-28T09:47:51.367Z,3.50
2023-02-28T09:50:27.340Z,3.90
2023-02-28T09:52:54.306Z,4.10
2023-02-28T09:55:41.430Z,4.00
2023-02-28T09:58:21.614Z,3.70
2023-02-28T10:00:48.282Z,3.60
2023-02-28T10:03:28.948Z,3.70
2023-02-28T10:06:13.760Z,3.80
2023-02-28T10:09:07.060Z,3.80
2023-02-28T10:11:34.067Z,3.40
2023-02-28T10:14:03.571Z,3.10
2023-02-28T10:16:57.766Z,3.10
2023-02-28T10:19:36.452Z,3.30
2023-02-28T10:22:06.429Z,3.40
2023-02-28T10:24:39.940Z,3.30
2023-02-28T10:27:25.967Z,3.10
2023-02-28T10:29:54.411Z,3.70
2023-02-28T10:32:29.085Z,3.80
2023-02-28T10:35:19.983Z,3.90
2023-02-28T10:37:48.685Z,4.20
2023-02-28T10:40:18.269Z,4.50
2023-02-28T10:42:55.824Z,4.70
2023-02-28T10:45:24.261Z,4.80
2023-02-28T10:47:56.521Z,4.70
2023-02-28T10:50:39.125Z,4.80
2023-02-28T10:53:11.438Z,4.20
2023-02-28T10:55:38.409Z,4.10
2023-02-28T10:58:05.048Z,3.90
2023-02-28T11:00:34.547Z,4.10
2023-02-28T11:03:01.171Z,4.30
2023-02-28T11:05:35.433Z,4.50
2023-02-28T11:08:17.965Z,4.70
2023-02-28T11:11:00.589Z,4.40
2023-02-28T11:13:30.463Z,4.20
2023-02-28T11:15:59.097Z,4.20
2023-02-28T11:18:48.100Z,4.20
2023-02-28T11:21:40.988Z,4.30
2023-02-28T11:24:40.100Z,4.10
2023-02-28T11:27:06.741Z,4.20
2023-02-28T11:29:34.328Z,4.30
2023-02-28T11:32:32.363Z,4.50
2023-02-28T11:35:05.654Z,4.50
2023-02-28T11:37:32.716Z,4.70
2023-02-28T11:39:59.443Z,4.60
2023-02-28T11:42:33.446Z,4.70
2023-02-28T11:45:06.347Z,4.30
2023-02-28T11:48:25.273Z,4.30
2023-02-28T11:51:04.320Z,4.20
2023-02-28T11:53:44.971Z,4.60
2023-02-28T11:56:32.352Z,4.60
2023-02-28T11:59:06.812Z,4.50
2023-02-28T12:01:51.882Z,4.50
2023-02-28T12:04:40.887Z,4.40
2023-02-28T12:07:36.518Z,4.60
2023-02-28T12:10:06.369Z,4.70
2023-02-28T12:13:05.824Z,4.60
2023-02-28T12:15:44.605Z,4.50
2023-02-28T12:18:47.918Z,4.50
2023-02-28T12:21:32.731Z,4.50
2023-02-28T12:24:18.339Z,4.60
2023-02-28T12:26:46.048Z,4.60
2023-02-28T12:29:21.390Z,4.80
2023-02-28T12:31:52.909Z,4.70
2023-02-28T12:34:21.996Z,4.70
2023-02-28T12:36:48.618Z,4.50
2023-02-28T12:39:31.201Z,4.60
2023-02-28T12:42:11.522Z,4.50
2023-02-28T12:44:47.280Z,4.30
2023-02-28T12:47:16.339Z,4.40
2023-02-28T12:49:59.356Z,4.50
2023-02-28T12:52:46.975Z,4.60
2023-02-28T12:55:19.828Z,4.60
2023-02-28T12:58:37.252Z,4.70
2023-02-28T13:01:28.930Z,4.80
2023-02-28T13:04:28.447Z,4.90
2023-02-28T13:07:22.031Z,4.90
2023-02-28T13:09:56.052Z,4.70
2023-02-28T13:12:24.043Z,4.70
2023-02-28T13:14:51.090Z,4.80
2023-02-28T13:17:24.921Z,4.80
2023-02-28T13:19:55.256Z,4.70
2023-02-28T13:22:50.322Z,4.80
2023-02-28T13:25:23.025Z,4.80
2023-02-28T13:27:57.870Z,4.90
2023-02-28T13:30:53.116Z,5.00
2023-02-28T13:33:32.931Z,4.90
2023-02-28T13:36:09.914Z,5.00
2023-02-28T13:38:41.684Z,5.10
2023-02-28T13:41:41.558Z,5.00
2023-02-28T13:44:15.016Z,5.00
2023-02-28T13:46:50.826Z,5.00
2023-02-28T13:49:23.826Z,4.90
2023-02-28T13:51:54.008Z,4.90
2023-02-28T13:54:30.151Z,4.90
2023-02-28T13:57:34.487Z,4.80
2023-02-28T14:00:28.366Z,4.80
2023-02-28T14:03:04.111Z,4.80
2023-02-28T14:05:31.307Z,4.90
2023-02-28T14:07:59.168Z,4.90
2023-02-28T14:10:46.576Z,5.00
2023-02-28T14:13:13.188Z,5.00
2023-02-28T14:15:47.197Z,5.00
2023-02-28T14:18:30.370Z,4.80
2023-02-28T14:21:21.820Z,4.90
2023-02-28T14:24:18.147Z,4.90
2023-02-28T14:26:54.851Z,4.90
2023-02-28T14:29:59.294Z,4.90
2023-02-28T14:32:48.673Z,4.90
2023-02-28T14:35:37.647Z,4.80
2023-02-28T14:38:08.292Z,5.00
2023-02-28T14:40:36.346Z,5.00
2023-02-28T14:43:05.402Z,5.10
2023-02-28T14:45:33.978Z,5.00
2023-02-28T14:48:00.667Z,4.90
2023-02-28T14:50:32.365Z,4.90
2023-02-28T14:53:00.000Z,4.90
2023-02-28T14:55:35.171Z,4.90
2023-02-28T14:58:09.956Z,4.90
2023-02-28T15:00:41.174Z,4.90
2023-02-28T15:03:32.553Z,4.80
2023-02-28T15:06:04.381Z,4.90
2023-02-28T15:08:32.826Z,5.00
2023-02-28T15:11:05.136Z,4.90
2023-02-28T15:13:51.328Z,4.70
2023-02-28T15:16:39.923Z,4.60
2023-02-28T15:19:09.036Z,4.60
2023-02-28T15:21:37.256Z,4.60
2023-02-28T15:24:07.284Z,4.50
2023-02-28T15:26:35.403Z,4.50
2023-02-28T15:29:06.917Z,4.50
2023-02-28T15:31:53.989Z,4.40
2023-02-28T15:34:44.600Z,4.50
2023-02-28T15:37:33.767Z,4.40
2023-02-28T15:40:11.702Z,4.40
2023-02-28T15:42:38.383Z,4.30
2023-02-28T15:45:05.655Z,4.40
2023-02-28T15:47:32.389Z,4.30
2023-02-28T15:50:03.626Z,4.20
2023-02-28T15:52:44.054Z,4.20
2023-02-28T15:55:21.928Z,4.20
2023-02-28T15:57:53.794Z,4.10
2023-02-28T16:00:22.659Z,4.10
2023-02-28T16:02:49.697Z,4.00
2023-02-28T16:05:22.830Z,4.00
2023-02-28T16:07:49.905Z,4.00
2023-02-28T16:10:16.720Z,3.90
2023-02-28T16:12:43.550Z,3.90
2023-02-28T16:15:19.894Z,3.90
2023-02-28T16:17:47.575Z,3.80
2023-02-28T16:20:19.348Z,3.70
2023-02-28T16:22:46.623Z,3.70
2023-02-28T16:25:14.503Z,3.70
2023-02-28T16:27:41.131Z,3.60
2023-02-28T16:30:08.256Z,3.50
2023-02-28T16:32:37.918Z,3.50
2023-02-28T16:35:06.725Z,3.40
2023-02-28T16:37:33.413Z,3.40
2023-02-28T16:40:00.144Z,3.40
2023-02-28T16:42:27.999Z,3.30
2023-02-28T16:44:54.744Z,3.30
2023-02-28T16:47:21.765Z,3.20
2023-02-28T16:49:48.633Z,3.10
2023-02-28T16:52:15.336Z,3.00
2023-02-28T16:54:42.594Z,3.00
2023-02-28T16:57:24.047Z,2.90
2023-02-28T16:59:53.849Z,2.90
2023-02-28T17:02:20.763Z,2.90
2023-02-28T17:04:50.599Z,2.80
2023-02-28T17:07:17.646Z,2.80
2023-02-28T17:09:45.726Z,2.70
2023-02-28T17:12:13.607Z,2.60
2023-02-28T17:14:40.289Z,2.50
2023-02-28T17:17:07.411Z,2.50
2023-02-28T17:19:34.972Z,2.50
2023-02-28T17:22:01.680Z,2.40
2023-02-28T17:24:31.125Z,2.40
2023-02-28T17:26:58.212Z,2.30
2023-02-28T17:29:25.799Z,2.30
2023-02-28T17:31:52.876Z,2.20
2023-02-28T17:34:20.614Z,2.20
2023-02-28T17:36:48.415Z,2.20
2023-02-28T17:39:15.212Z,2.20
2023-02-28T17:41:42.786Z,2.20
2023-02-28T17:44:09.887Z,2.10
2023-02-28T17:46:36.575Z,2.10
2023-02-28T17:49:03.255Z,2.00
2023-02-28T17:51:29.912Z,2.00
2023-02-28T17:53:56.596Z,1.90
2023-02-28T17:56:24.865Z,1.90
2023-02-28T17:58:52.902Z,1.80
2023-02-28T18:01:21.152Z,1.80
2023-02-28T18:03:48.349Z,1.70
2023-02-28T18:06:19.755Z,1.60
2023-02-28T18:08:46.647Z,1.60
2023-02-28T18:11:21.948Z,1.50
2023-02-28T18:13:50.199Z,1.50
2023-02-28T18:16:17.040Z,1.40
2023-02-28T18:18:44.127Z,1.40
2023-02-28T18:21:12.458Z,1.30
2023-02-28T18:23:45.708Z,1.30
2023-02-28T18:26:12.328Z,1.30
2023-02-28T18:28:40.983Z,1.40
2023-02-28T18:31:08.692Z,1.30
2023-02-28T18:33:35.583Z,1.30
2023-02-28T18:36:02.417Z,1.30
2023-02-28T18:38:29.260Z,1.20
2023-02-28T18:40:59.205Z,1.10
2023-02-28T18:43:29.617Z,1.10
2023-02-28T18:45:56.234Z,1.10
2023-02-28T18:48:25.680Z,1.00
2023-02-28T18:50:52.658Z,0.90
2023-02-28T18:53:21.520Z,0.90
2023-02-28T18:55:48.135Z,0.80
2023-02-28T18:58:14.752Z,0.70
2023-02-28T19:00:41.733Z,0.70
2023-02-28T19:03:08.468Z,0.60
2023-02-28T19:05:35.193Z,0.60
2023-02-28T19:08:02.170Z,0.60
2023-02-28T19:10:28.784Z,0.50
2023-02-28T19:12:55.702Z,0.50
2023-02-28T19:15:22.404Z,0.50
2023-02-28T19:17:49.718Z,0.50
2023-02-28T19:20:16.831Z,0.50
2023-02-28T19:22:44.520Z,0.50
2023-02-28T19:25:11.287Z,0.40
2023-02-28T19:27:37.935Z,0.40
2023-02-28T19:30:06.282Z,0.40
2023-02-28T19:32:33.023Z,0.40
2023-02-28T19:34:59.683Z,0.30
2023-02-28T19:37:26.370Z,0.40
2023-02-28T19:39:56.812Z,0.40
2023-02-28T19:42:23.479Z,0.30
2023-02-28T19:44:50.084Z,0.30
2023-02-28T19:47:16.699Z,0.20
2023-02-28T19:49:43.306Z,0.20
2023-02-28T19:52:13.333Z,0.30
2023-02-28T19:54:42.261Z,0.30
2023-02-28T19:57:08.879Z,0.30
2023-02-28T19:59:39.797Z,0.20
2023-02-28T20:02:12.833Z,0.30
2023-02-28T20:04:39.466Z,0.40
2023-02-28T20:07:06.153Z,0.50
2023-02-28T20:09:32.894Z,0.40
2023-02-28T20:11:59.551Z,0.50
2023-02-28T20:14:26.488Z,0.60
2023-02-28T20:16:53.161Z,0.60
2023-02-28T20:19:19.814Z,0.50
2023-02-28T20:21:47.012Z,0.40
2023-02-28T20:24:13.914Z,0.40
2023-02-28T20:26:40.574Z,0.40
2023-02-28T20:29:11.745Z,0.30
2023-02-28T20:31:38.353Z,0.20
2023-02-28T20:34:05.201Z,0.20
2023-02-28T20:36:32.075Z,0.10
2023-02-28T20:39:00.352Z,0.00
2023-02-28T20:41:27.188Z,-0.10
2023-02-28T20:44:03.062Z,-0.20
2023-02-28T20:46:31.292Z,-0.20
2023-02-28T20:48:58.202Z,-0.30
2023-02-28T20:51:24.847Z,-0.30
2023-02-28T20:53:51.517Z,-0.30
2023-02-28T20:56:19.527Z,-0.30
2023-02-28T20:58:47.611Z,-0.30
2023-02-28T21:01:17.042Z,-0.30
2023-02-28T21:03:44.808Z,-0.30
2023-02-28T21:06:11.673Z,-0.30
2023-02-28T21:08:38.427Z,-0.30
2023-02-28T21:11:11.703Z,-0.30
2023-02-28T21:13:38.428Z,-0.30
2023-02-28T21:16:06.184Z,-0.40
2023-02-28T21:18:34.062Z,-0.40
2023-02-28T21:21:05.025Z,-0.40
2023-02-28T21:23:31.907Z,-0.40
2023-02-28T21:26:05.838Z,-0.40
2023-02-28T21:28:32.770Z,-0.50
2023-02-28T21:31:06.929Z,-0.50
2023-02-28T21:33:34.005Z,-0.50
2023-02-28T21:36:08.498Z,-0.60
2023-02-28T21:38:35.758Z,-0.70
2023-02-28T21:41:09.711Z,-0.80
2023-02-28T21:43:36.501Z,-0.90
2023-02-28T21:46:08.263Z,-1.00
2023-02-28T21:48:34.998Z,-1.00
2023-02-28T21:51:02.916Z,-1.10
2023-02-28T21:53:33.136Z,-1.10
2023-02-28T21:56:14.585Z,-1.20
2023-02-28T21:58:41.242Z,-1.20
2023-02-28T22:01:18.584Z,-1.30
2023-02-28T22:03:45.461Z,-1.30
2023-02-28T22:06:16.755Z,-1.40
2023-02-28T22:08:45.117Z,-1.40
2023-02-28T22:11:12.229Z,-1.40
2023-02-28T22:13:39.158Z,-1.40
2023-02-28T22:16:07.167Z,-1.50
2023-02-28T22:18:36.960Z,-1.50
2023-02-28T22:21:04.116Z,-1.50
2023-02-28T22:23:30.949Z,-1.40
2023-02-28T22:25:59.740Z,-1.30
2023-02-28T22:28:27.956Z,-1.20
2023-02-28T22:30:54.612Z,-1.10
2023-02-28T22:33:21.569Z,-1.10
2023-02-28T22:35:48.260Z,-1.10
2023-02-28T22:38:15.306Z,-1.10
2023-02-28T22:40:41.998Z,-1.10
2023-02-28T22:43:08.827Z,-1.00
2023-02-28T22:45:36.761Z,-1.10
2023-02-28T22:48:06.922Z,-1.20
2023-02-28T22:50:33.536Z,-1.20
2023-02-28T22:53:00.163Z,-1.40
2023-02-28T22:55:26.892Z,-1.40
2023-02-28T22:57:53.579Z,-1.50
2023-02-28T23:00:20.472Z,-1.50
2023-02-28T23:02:47.561Z,-1.60
2023-02-28T23:05:14.322Z,-1.60
2023-02-28T23:07:41.260Z,-1.60
2023-02-28T23:10:09.699Z,-1.60
2023-02-28T23:12:36.415Z,-1.70
2023-02-28T23:15:03.249Z,-1.70
2023-02-28T23:17:31.843Z,-1.70
2023-02-28T23:19:58.727Z,-1.60
2023-02-28T23:22:25.335Z,-1.60
2023-02-28T23:24:53.161Z,-1.70
2023-02-28T23:27:20.012Z,-1.80
2023-02-28T23:29:46.878Z,-2.00
2023-02-28T23:32:13.554Z,-2.00
2023-02-28T23:34:40.608Z,-2.00
2023-02-28T23:37:07.267Z,-2.10
2023-02-28T23:39:33.886Z,-2.10
2023-02-28T23:42:02.031Z,-2.20
2023-02-28T23:44:28.771Z,-2.20
2023-02-28T23:46:55.588Z,-2.30
2023-02-28T23:49:23.067Z,-2.30
2023-02-28T23:51:50.320Z,-2.30
2023-02-28T23:54:17.544Z,-2.20
2023-02-28T23:56:44.508Z,-2.20
2023-02-28T23:59:11.355Z,-2.20
